Time;durP1;ratioP1;P1;durP2;ratioP2;P2;SDS_P1;SDS_P2;PMS_P1;PMS_P2;Temp;Humidity;BMP_temperature;BMP_pressure;BME280_temperature;BME280_humidity;BME280_pressure;Samples;Min_cycle;Max_cycle;Signal;HPM_P1;HPM_P2
2023/10/08 00:07:09;;;;;;;;;;;;;;;;;;;;;
2023/10/08 00:10:19;;;;;;;;;;;;;;;;;;;;;
2023/10/08 00:20:09;;;;;;;0.85;0.62;;;;;;;18.99;60.24;99801.88;5306602;27;20172;-96
2023/10/08 00:22:41;;;;;;;0.32;0.30;;;;;;;18.90;60.23;99799.81;5262260;26;20072;-95
2023/10/08 00:28:42;;;;;;;0.68;0.47;;;;;;;18.97;60.23;99796.69;5340472;26;20145;-96
2023/10/08 00:31:17;;;;;;;0.23;0.10;;;;;;;19.41;60.26;99800.81;5308871;26;20029;-96
2023/10/08 00:33:44;;;;;;;0.00;0.00;;;;;;;19.69;60.28;99799.78;5311004;26;20068;-95
2023/10/08 00:36:19;;;;;;;0.57;0.40;;;;;;;19.64;60.27;99794.00;5308834;26;20067;-96
2023/10/08 00:38:47;;;;;;;1.85;0.75;;;;;;;19.88;60.28;99794.09;5311683;26;20058;-96
2023/10/08 00:41:19;;;;;;;0.20;0.20;;;;;;;19.93;60.29;99782.25;5290996;26;20093;-96
2023/10/08 00:43:50;;;;;;;1.58;1.08;;;;;;;19.93;60.29;99774.31;5309077;26;20132;-96
2023/10/08 00:46:23;;;;;;;0.75;0.30;;;;;;;19.89;60.28;99787.84;5308646;26;20811;-95
2023/10/08 00:49:23;;;;;;;1.25;0.43;;;;;;;20.06;60.28;99776.06;5309608;26;20413;-95
2023/10/08 01:31:26;;;;;;;0.10;0.10;;;;;;;19.85;60.29;99758.13;5098512;28;20096;-95
2023/10/08 01:34:04;;;;;;;1.83;0.77;;;;;;;19.95;60.29;99754.88;5110519;28;20059;-96
2023/10/08 01:37:06;;;;;;;0.10;0.10;;;;;;;20.02;60.29;99749.03;5108662;27;20360;-96
2023/10/08 01:39:34;;;;;;;0.15;0.15;;;;;;;19.97;60.29;99740.59;5207222;27;20084;-94
2023/10/08 01:42:28;;;;;;;0.00;0.00;;;;;;;20.13;60.29;99738.56;5237094;27;20085;-94
2023/10/08 01:44:58;;;;;;;0.47;0.40;;;;;;;20.02;60.29;99745.53;5219430;27;20053;-94
2023/10/08 01:47:54;;;;;;;1.90;1.00;;;;;;;19.92;60.29;99740.09;5319548;26;20470;-92
2023/10/08 01:50:33;;;;;;;1.17;0.30;;;;;;;19.91;60.29;99728.66;5341169;26;20087;-94
2023/10/08 01:53:09;;;;;;;0.00;0.00;;;;;;;20.10;60.30;99730.81;5320335;26;20155;-94
2023/10/08 01:56:04;;;;;;;0.00;0.00;;;;;;;20.12;60.30;99728.09;5331163;26;20063;-92
2023/10/08 01:59:04;;;;;;;0.08;0.08;;;;;;;20.10;60.30;99724.69;5360314;26;20033;-96
2023/10/08 02:01:30;;;;;;;8.00;0.80;;;;;;;19.86;60.28;99711.44;5371356;26;20075;-96
2023/10/08 02:04:17;;;;;;;0.08;0.08;;;;;;;19.92;60.29;99722.44;5356112;26;20064;-96
2023/10/08 02:06:52;;;;;;;;;;;;;;;;;;;;;
2023/10/08 02:09:25;;;;;;;0.82;0.82;;;;;;;20.00;60.29;99715.75;5348854;26;35622;-94
2023/10/08 02:11:51;;;;;;;0.00;0.00;;;;;;;19.82;60.28;99718.75;5330123;26;20462;-94
2023/10/08 02:14:18;;;;;;;0.25;0.22;;;;;;;20.03;60.29;99716.38;5329929;26;20079;-94
2023/10/08 02:16:44;;;;;;;0.15;0.15;;;;;;;19.83;60.27;99722.22;5329330;26;20071;-95
2023/10/08 02:19:12;;;;;;;0.05;0.05;;;;;;;19.83;60.28;99715.12;5329430;26;20121;-95
2023/10/08 02:21:41;;;;;;;0.17;0.17;;;;;;;19.82;60.28;99710.81;5330253;26;20057;-94
2023/10/08 02:24:11;;;;;;;0.65;0.65;;;;;;;19.88;60.29;99710.41;5330526;26;20064;-95
2023/10/08 02:30:10;;;;;;;0.15;0.15;;;;;;;19.77;60.28;99702.38;5329041;26;20051;-95
2023/10/08 02:32:36;;;;;;;0.10;0.10;;;;;;;19.92;60.30;99708.38;5331121;26;20068;-95
2023/10/08 02:35:03;;;;;;;0.73;0.57;;;;;;;19.84;60.29;99711.53;5329713;26;20134;-95
2023/10/08 02:37:30;;;;;;;0.00;0.00;;;;;;;19.88;60.28;99705.13;5329205;26;20056;-94
2023/10/08 02:39:58;;;;;;;4.40;0.62;;;;;;;19.86;60.29;99701.72;5347602;26;20114;-93
2023/10/08 02:42:24;;;;;;;2.55;1.45;;;;;;;19.80;60.28;99686.31;5346895;26;20064;-93
2023/10/08 02:44:51;;;;;;;0.22;0.22;;;;;;;19.61;60.27;99694.69;5329464;26;20124;-93
2023/10/08 02:47:20;;;;;;;0.62;0.50;;;;;;;19.71;60.28;99691.41;5329625;26;20748;-93
2023/10/08 02:50:39;;;;;;;0.00;0.00;;;;;;;19.73;60.27;99697.44;5330116;26;20652;-94
2023/10/08 02:53:10;;;;;;;0.00;0.00;;;;;;;19.90;60.29;99695.28;5347649;26;20115;-94
2023/10/08 02:55:41;;;;;;;0.00;0.00;;;;;;;19.84;60.29;99692.22;5348586;26;20069;-93
2023/10/08 02:58:14;;;;;;;0.25;0.25;;;;;;;19.84;60.29;99703.63;5333055;26;20052;-93
2023/10/08 03:00:49;;;;;;;0.20;0.20;;;;;;;19.95;60.29;99694.94;5330533;26;20052;-95
2023/10/08 03:03:18;;;;;;;0.00;0.00;;;;;;;19.79;60.28;99689.06;5329933;26;20029;-95
2023/10/08 03:05:51;;;;;;;0.13;0.13;;;;;;;19.97;60.29;99684.28;5357423;26;20025;-96
2023/10/08 03:08:23;;;;;;;0.13;0.13;;;;;;;20.00;60.29;99676.13;5331582;26;20051;-96
2023/10/08 03:10:55;;;;;;;1.15;1.02;;;;;;;20.10;60.30;99671.84;5331861;26;20060;-96
2023/10/08 03:13:26;;;;;;;0.45;0.40;;;;;;;20.10;60.30;99667.41;5330763;26;20065;-96
2023/10/08 03:18:34;;;;;;;0.22;0.22;;;;;;;20.13;60.29;99672.50;5350940;26;20067;-96
2023/10/08 03:21:03;;;;;;;0.32;0.32;;;;;;;20.11;60.30;99668.25;5331808;26;20066;-96
2023/10/08 03:23:36;;;;;;;0.35;0.35;;;;;;;20.10;60.30;99663.91;5331118;26;20103;-95
2023/10/08 03:26:11;;;;;;;0.10;0.10;;;;;;;19.93;60.29;99650.16;5331721;26;20052;-94
2023/10/08 03:28:37;;;;;;;0.15;0.10;;;;;;;20.10;60.30;99656.00;5348810;26;20181;-96
2023/10/08 03:31:04;;;;;;;1.37;1.20;;;;;;;20.11;60.30;99657.69;5330236;26;20048;-95
2023/10/08 03:33:34;;;;;;;0.10;0.10;;;;;;;20.06;60.29;99655.38;5348375;26;20064;-96
2023/10/08 03:36:34;;;;;;;;;;;;;;;19.92;60.30;99651.09;5330324;26;20112;-96
2023/10/08 03:38:57;;;;;;;0.22;0.20;;;;;;;20.06;60.29;99650.09;5367338;26;19979;-95
2023/10/08 03:41:32;;;;;;;0.75;0.70;;;;;;;20.14;60.29;99641.63;5329862;26;20040;-95
2023/10/08 03:44:16;;;;;;;4.65;1.10;;;;;;;20.04;60.29;99643.22;5328499;26;20056;-95
2023/10/08 03:47:22;;;;;;;3.08;0.70;;;;;;;20.10;60.31;99634.84;5331409;26;20340;-95
2023/10/08 03:49:50;;;;;;;0.00;0.00;;;;;;;20.07;60.29;99635.06;5347813;26;20056;-95
2023/10/08 03:52:16;;;;;;;0.20;0.20;;;;;;;20.07;60.29;99625.34;5329838;26;20115;-95
2023/10/08 03:57:40;;;;;;;0.00;0.00;;;;;;;19.85;60.29;99615.50;5351419;26;20109;-93
2023/10/08 04:00:14;;;;;;;0.52;0.52;;;;;;;20.04;60.29;99624.72;5335137;26;20031;-92
2023/10/08 04:02:46;;;;;;;0.32;0.32;;;;;;;19.92;60.29;99618.56;5331058;26;20067;-95
2023/10/08 04:09:11;;;;;;;;;;;;;;;;;;;;;
2023/10/08 04:12:10;;;;;;;0.00;0.00;;;;;;;20.00;60.28;99618.00;5303109;27;20500;-92
2023/10/08 04:14:39;;;;;;;0.10;0.10;;;;;;;20.10;60.30;99608.41;5303245;27;20057;-93
2023/10/08 04:17:12;;;;;;;0.60;0.60;;;;;;;20.16;60.30;99613.28;5302226;27;20029;-92
2023/10/08 04:43:10;;;;;;;0.00;0.00;;;;;;;20.31;60.30;99613.94;5079742;28;20080;-96
2023/10/08 04:45:41;;;;;;;0.75;0.75;;;;;;;20.35;60.31;99608.31;5091805;28;20077;-94
2023/10/08 04:48:09;;;;;;;0.00;0.00;;;;;;;20.53;60.33;99603.47;5092348;28;20768;-96
2023/10/08 04:54:16;;;;;;;0.00;0.00;;;;;;;20.61;60.32;99613.50;5113954;27;20024;-93
2023/10/08 05:03:22;;;;;;;1.25;0.47;;;;;;;20.70;60.33;99600.41;5181205;27;20278;-94
2023/10/08 05:12:30;;;;;;;0.47;0.47;;;;;;;20.94;60.34;99595.03;5271973;27;20079;-96
2023/10/08 05:15:32;;;;;;;;;;;;;;;;;;;;;
2023/10/08 05:18:54;;;;;;;0.70;0.55;;;;;;;20.93;60.33;99581.91;5278392;27;35783;-95
2023/10/08 05:28:36;;;;;;;0.00;0.00;;;;;;;21.02;60.34;99605.00;5335846;26;20960;-94
2023/10/08 05:31:21;;;;;;;0.00;0.00;;;;;;;21.24;60.36;99606.88;5311301;26;20719;-94
2023/10/08 05:42:05;;;;;;;1.87;1.08;;;;;;;21.47;60.37;99608.53;5349781;26;20078;-94
2023/10/08 05:44:39;;;;;;;0.10;0.10;;;;;;;21.57;60.37;99588.31;5316055;26;20060;-95
2023/10/08 05:47:22;;;;;;;0.35;0.25;;;;;;;21.61;60.37;99615.41;5313655;26;20071;-94
2023/10/08 05:55:33;;;;;;;0.47;0.32;;;;;;;21.80;60.39;99635.97;5334660;26;20153;-93
2023/10/08 05:58:24;;;;;;;0.10;0.10;;;;;;;21.92;60.39;99634.97;5315242;26;20072;-94
2023/10/08 06:03:32;;;;;;;0.00;0.00;;;;;;;22.07;60.40;99632.94;5329019;26;20119;-95
2023/10/08 06:08:49;;;;;;;1.35;1.05;;;;;;;22.14;60.40;99639.41;5332873;26;20073;-93
2023/10/08 06:11:41;;;;;;;16.58;1.10;;;;;;;22.12;60.40;99641.34;5307758;26;20036;-93
2023/10/08 06:14:11;;;;;;;1.45;0.73;;;;;;;22.18;60.41;99640.84;5327598;26;20449;-95
2023/10/08 06:16:43;;;;;;;2.12;0.47;;;;;;;22.17;60.41;99649.75;5307954;26;20461;-93
2023/10/08 06:19:10;;;;;;;1.83;0.32;;;;;;;22.13;60.40;99656.28;5307941;26;20052;-93
2023/10/08 06:21:39;;;;;;;0.10;0.00;;;;;;;22.25;60.41;99669.41;5307883;26;20056;-93
2023/10/08 06:24:08;;;;;;;0.20;0.20;;;;;;;22.32;60.40;99664.44;5307718;26;20052;-92
2023/10/08 06:26:42;;;;;;;0.68;0.68;;;;;;;22.35;60.41;99672.97;5308548;26;21076;-94
2023/10/08 06:29:26;;;;;;;0.30;0.30;;;;;;;22.28;60.41;99669.16;5307911;26;20358;-94
2023/10/08 06:31:55;;;;;;;0.00;0.00;;;;;;;22.27;60.41;99664.81;5309784;26;20024;-95
2023/10/08 06:34:21;;;;;;;0.60;0.47;;;;;;;22.34;60.42;99670.44;5308390;26;20117;-94
2023/10/08 06:36:47;;;;;;;0.22;0.22;;;;;;;22.32;60.42;99680.34;5308505;26;20065;-95
2023/10/08 06:39:18;;;;;;;1.80;0.85;;;;;;;22.53;60.42;99686.53;5307876;26;20060;-96
2023/10/08 06:41:46;;;;;;;0.60;0.35;;;;;;;22.47;60.42;99664.97;5309103;26;20052;-94
2023/10/08 06:44:14;;;;;;;1.95;0.73;;;;;;;22.29;60.41;99680.59;5308868;26;20139;-94
2023/10/08 06:46:39;;;;;;;0.52;0.52;;;;;;;22.29;60.41;99675.28;5308652;26;20444;-94
2023/10/08 06:49:11;;;;;;;0.50;0.20;;;;;;;22.34;60.42;99684.53;5308006;26;20057;-95
2023/10/08 06:51:47;;;;;;;0.52;0.52;;;;;;;22.33;60.41;99685.50;5308097;26;20134;-95
2023/10/08 06:54:53;;;;;;;1.25;0.62;;;;;;;22.50;60.42;99693.91;5307763;26;20913;-94
2023/10/08 06:57:20;;;;;;;0.00;0.00;;;;;;;22.46;60.42;99697.75;5326941;26;20603;-95
2023/10/08 06:59:50;;;;;;;0.88;0.17;;;;;;;22.47;60.42;99697.63;5308351;26;20071;-94
2023/10/08 07:02:16;;;;;;;0.28;0.28;;;;;;;22.46;60.42;99687.16;5308748;26;20044;-94
2023/10/08 07:04:43;;;;;;;0.35;0.28;;;;;;;22.45;60.42;99681.00;5308265;26;20040;-93
2023/10/08 07:07:09;;;;;;;0.25;0.25;;;;;;;22.28;60.41;99687.72;5312868;26;20032;-95
2023/10/08 07:09:36;;;;;;;0.00;0.00;;;;;;;22.23;60.41;99678.41;5310444;26;20104;-94
2023/10/08 07:12:05;;;;;;;1.17;0.70;;;;;;;22.18;60.41;99680.59;5312292;26;20077;-94
2023/10/08 07:14:31;;;;;;;0.00;0.00;;;;;;;22.07;60.40;99678.00;5331049;26;20050;-94
2023/10/08 07:17:00;;;;;;;0.00;0.00;;;;;;;22.13;60.40;99683.63;5312257;26;20064;-93
2023/10/08 07:19:39;;;;;;;0.17;0.17;;;;;;;22.04;60.40;99677.28;5312806;26;20036;-95
2023/10/08 07:22:28;;;;;;;0.00;0.00;;;;;;;22.10;60.41;99678.59;5315100;26;20062;-94
2023/10/08 07:24:53;;;;;;;2.25;1.42;;;;;;;21.98;60.39;99672.41;5312557;26;20039;-94
2023/10/08 07:27:24;;;;;;;0.00;0.00;;;;;;;22.16;60.41;99672.78;5311952;26;20076;-95
2023/10/08 07:29:50;;;;;;;0.47;0.45;;;;;;;22.30;60.41;99671.66;5311760;26;20048;-94
2023/10/08 07:32:18;;;;;;;0.10;0.10;;;;;;;22.33;60.41;99677.56;5311954;26;20122;-95
2023/10/08 07:34:47;;;;;;;0.32;0.20;;;;;;;22.33;60.42;99682.03;5312382;26;20064;-94
2023/10/08 07:37:14;;;;;;;0.17;0.10;;;;;;;22.28;60.41;99681.56;5311531;26;20752;-94
2023/10/08 07:39:46;;;;;;;1.08;0.35;;;;;;;22.46;60.42;99676.53;5311949;26;20439;-95
2023/10/08 07:42:12;;;;;;;0.65;0.43;;;;;;;22.54;60.42;99679.41;5313285;26;20054;-94
2023/10/08 07:44:38;;;;;;;0.90;0.68;;;;;;;22.52;60.42;99692.81;5311622;26;20064;-94
2023/10/08 07:47:05;;;;;;;0.00;0.00;;;;;;;22.56;60.43;99670.38;5312024;26;20440;-94
2023/10/08 07:49:31;;;;;;;0.20;0.20;;;;;;;22.49;60.42;99669.19;5312289;26;20702;-94
2023/10/08 07:51:58;;;;;;;4.50;1.48;;;;;;;22.50;60.42;99667.38;5311644;26;20056;-93
2023/10/08 07:54:24;;;;;;;1.12;0.90;;;;;;;22.53;60.42;99667.13;5311906;26;20032;-94
2023/10/08 07:56:56;;;;;;;4.37;0.32;;;;;;;22.56;60.42;99662.41;5307564;26;20060;-95
2023/10/08 07:59:31;;;;;;;1.35;0.37;;;;;;;22.56;60.43;99672.19;5310650;26;20056;-95
2023/10/08 08:01:57;;;;;;;0.10;0.10;;;;;;;22.58;60.42;99673.72;5311336;26;20396;-93
2023/10/08 08:04:22;;;;;;;0.62;0.62;;;;;;;22.67;60.43;99674.75;5308908;26;23912;-94
2023/10/08 08:06:50;;;;;;;0.00;0.00;;;;;;;22.71;60.44;99676.19;5329748;26;20111;-93
2023/10/08 08:09:20;;;;;;;0.85;0.85;;;;;;;22.66;60.43;99681.87;5332799;26;20108;-94
2023/10/08 08:11:46;;;;;;;1.10;0.97;;;;;;;22.69;60.43;99680.78;5330163;26;20112;-95
2023/10/08 08:14:16;;;;;;;0.93;0.88;;;;;;;22.50;60.42;99673.53;5311321;26;20064;-94
2023/10/08 08:16:48;;;;;;;0.00;0.00;;;;;;;22.48;60.42;99661.38;5312175;26;20064;-95
2023/10/08 08:19:15;;;;;;;0.15;0.15;;;;;;;22.60;60.43;99665.63;5312312;26;20056;-94
2023/10/08 08:21:46;;;;;;;0.10;0.10;;;;;;;22.63;60.43;99668.88;5311445;26;20414;-95
2023/10/08 08:24:13;;;;;;;0.20;0.20;;;;;;;22.57;60.42;99674.69;5312488;26;20666;-95
2023/10/08 08:27:00;;;;;;;1.83;0.93;;;;;;;22.53;60.42;99669.78;5311378;26;20059;-93
2023/10/08 08:29:26;;;;;;;0.25;0.25;;;;;;;22.61;60.42;99678.78;5317580;26;20052;-95
2023/10/08 08:31:53;;;;;;;0.00;0.00;;;;;;;22.56;60.43;99685.44;5307476;26;20048;-94
2023/10/08 08:34:19;;;;;;;0.00;0.00;;;;;;;22.77;60.43;99682.81;5311312;26;20079;-94
2023/10/08 08:36:48;;;;;;;0.10;0.10;;;;;;;22.73;60.43;99676.94;5311774;26;20432;-94
2023/10/08 08:39:32;;;;;;;0.20;0.20;;;;;;;22.86;60.43;99684.72;5312184;26;20104;-95
2023/10/08 08:42:04;;;;;;;1.65;0.80;;;;;;;23.01;60.44;99686.09;5316033;26;20159;-94
2023/10/08 08:44:30;;;;;;;0.60;0.25;;;;;;;22.95;60.45;99682.16;5311717;26;20332;-93
2023/10/08 08:47:04;;;;;;;0.00;0.00;;;;;;;22.87;60.45;99673.13;5311367;26;20063;-95
2023/10/08 08:49:29;;;;;;;1.45;1.12;;;;;;;22.84;60.44;99668.94;5313058;26;20078;-93
2023/10/08 08:51:56;;;;;;;0.08;0.08;;;;;;;23.05;60.45;99673.41;5311159;26;20048;-94
2023/10/08 08:54:24;;;;;;;0.25;0.25;;;;;;;23.17;60.45;99681.16;5311881;26;20121;-94
2023/10/08 08:56:49;;;;;;;1.20;0.80;;;;;;;23.30;60.46;99686.25;5312692;26;20100;-95
2023/10/08 08:59:17;;;;;;;0.43;0.43;;;;;;;23.29;60.46;99692.56;5311846;26;20405;-96
2023/10/08 09:01:44;;;;;;;0.68;0.60;;;;;;;23.39;60.47;99682.81;5312010;26;20086;-94
2023/10/08 09:04:10;;;;;;;0.00;0.00;;;;;;;23.44;60.47;99685.09;5311915;26;20383;-93
2023/10/08 09:06:39;;;;;;;2.47;0.95;;;;;;;23.43;60.47;99688.72;5310994;26;20144;-93
2023/10/08 09:09:41;;;;;;;0.47;0.47;;;;;;;23.28;60.46;99682.91;5314700;26;20025;-94
2023/10/08 09:12:10;;;;;;;0.00;0.00;;;;;;;23.28;60.46;99690.88;5217199;27;20058;-93
2023/10/08 09:14:36;;;;;;;0.93;0.52;;;;;;;23.45;60.47;99742.56;5273872;26;20025;-91
2023/10/08 09:17:04;;;;;;;0.17;0.00;;;;;;;23.39;60.46;99711.19;5308262;26;20432;-94
2023/10/08 09:19:29;;;;;;;1.27;0.90;;;;;;;23.44;60.47;99716.97;5308496;26;20052;-94
2023/10/08 09:22:03;;;;;;;0.25;0.25;;;;;;;23.34;60.47;99730.19;5307749;26;20062;-93
2023/10/08 09:24:30;;;;;;;4.60;1.20;;;;;;;22.94;60.45;99730.88;5307627;26;20139;-93
2023/10/08 09:26:56;;;;;;;0.37;0.35;;;;;;;23.00;60.45;99749.94;5308216;26;20050;-95
2023/10/08 09:29:26;;;;;;;0.20;0.20;;;;;;;23.00;60.45;99752.59;5326116;26;20108;-93
2023/10/08 09:31:55;;;;;;;0.03;0.03;;;;;;;23.13;60.46;99753.22;5326023;26;20084;-94
2023/10/08 09:34:22;;;;;;;0.10;0.10;;;;;;;23.11;60.45;99764.00;5307933;26;20722;-94
2023/10/08 09:36:48;;;;;;;0.57;0.57;;;;;;;23.22;60.46;99768.41;5307830;26;20056;-93
2023/10/08 09:39:23;;;;;;;0.15;0.13;;;;;;;23.25;60.45;99776.12;5326149;26;20051;-93
2023/10/08 09:41:49;;;;;;;0.00;0.00;;;;;;;23.05;60.45;99795.53;5308879;26;20064;-92
2023/10/08 09:44:15;;;;;;;0.90;0.85;;;;;;;23.17;60.45;99786.53;5307635;26;20123;-93
2023/10/08 09:46:40;;;;;;;0.15;0.15;;;;;;;22.92;60.44;99799.19;5307655;26;20295;-93
2023/10/08 09:49:08;;;;;;;0.10;0.10;;;;;;;22.64;60.43;99807.69;5307385;26;20060;-92
2023/10/08 09:51:35;;;;;;;0.15;0.15;;;;;;;22.74;60.43;99797.19;5326025;26;20079;-95
2023/10/08 09:54:04;;;;;;;0.75;0.68;;;;;;;22.79;60.42;99784.38;5307145;26;20060;-92
2023/10/08 09:56:29;;;;;;;0.65;0.55;;;;;;;22.73;60.44;99801.66;5325979;26;20064;-94
2023/10/08 09:58:55;;;;;;;1.20;1.10;;;;;;;22.63;60.43;99812.16;5308214;26;20070;-92
2023/10/08 10:01:22;;;;;;;0.70;0.70;;;;;;;22.57;60.42;99809.16;5307545;26;20048;-94
2023/10/08 10:03:49;;;;;;;0.20;0.20;;;;;;;22.59;60.43;99812.53;5326727;26;20090;-93
2023/10/08 10:06:15;;;;;;;0.13;0.13;;;;;;;22.54;60.42;99828.81;5308038;26;20075;-94
2023/10/08 10:08:45;;;;;;;0.05;0.05;;;;;;;22.33;60.42;99844.62;5308259;26;20030;-93
2023/10/08 10:11:10;;;;;;;0.00;0.00;;;;;;;22.27;60.41;99879.59;5310105;26;20060;-94
2023/10/08 10:13:48;;;;;;;13.62;0.60;;;;;;;22.14;60.40;99876.22;5344891;26;20638;-96
2023/10/08 10:16:21;;;;;;;0.52;0.22;;;;;;;21.89;60.39;99894.94;5309230;26;20110;-94
2023/10/08 10:18:48;;;;;;;0.10;0.10;;;;;;;21.52;60.37;99899.50;5308233;26;20128;-94
2023/10/08 10:21:15;;;;;;;0.75;0.75;;;;;;;21.19;60.35;99902.84;5307431;26;20452;-95
2023/10/08 10:23:44;;;;;;;0.30;0.30;;;;;;;21.23;60.35;99885.75;5325895;26;20734;-94
2023/10/08 10:26:35;;;;;;;0.10;0.00;;;;;;;21.27;60.35;99879.31;5307590;26;20059;-94
2023/10/08 10:29:18;;;;;;;0.00;0.00;;;;;;;21.19;60.35;99873.72;5325754;26;20052;-94
2023/10/08 10:31:47;;;;;;;0.10;0.10;;;;;;;21.36;60.36;99878.66;5346077;26;20417;-94
2023/10/08 10:34:32;;;;;;;6.93;1.60;;;;;;;21.44;60.36;99870.97;5325884;26;20060;-93
2023/10/08 10:36:59;;;;;;;0.00;0.00;;;;;;;21.56;60.37;99861.25;5290953;26;20119;-93
2023/10/08 10:39:32;;;;;;;0.00;0.00;;;;;;;21.49;60.37;99863.50;5307090;26;20113;-93
2023/10/08 10:42:01;;;;;;;0.00;0.00;;;;;;;21.64;60.38;99874.75;5325884;26;20124;-94
2023/10/08 10:44:29;;;;;;;0.00;0.00;;;;;;;21.70;60.37;99871.63;5322059;26;20033;-95
2023/10/08 10:49:48;;;;;;;0.08;0.08;;;;;;;21.82;60.38;99883.12;5329170;26;20871;-96
2023/10/08 10:52:26;;;;;;;1.65;0.40;;;;;;;21.60;60.37;99879.44;5327692;26;20123;-95
2023/10/08 10:54:59;;;;;;;0.00;0.00;;;;;;;21.65;60.38;99885.25;5309681;26;20071;-94
2023/10/08 10:57:34;;;;;;;2.65;1.90;;;;;;;21.69;60.37;99891.16;5308128;26;20052;-94
2023/10/08 11:00:27;;;;;;;0.00;0.00;;;;;;;21.57;60.37;99902.69;5308238;26;20827;-94
2023/10/08 11:02:49;;;;;;;0.00;0.00;;;;;;;21.38;60.36;99913.78;5313584;26;20064;-95
2023/10/08 11:05:19;;;;;;;0.00;0.00;;;;;;;21.28;60.35;99929.50;5307537;26;20056;-95
2023/10/08 11:07:48;;;;;;;0.00;0.00;;;;;;;21.32;60.36;99923.03;5308915;26;20091;-95
2023/10/08 11:10:15;;;;;;;0.22;0.22;;;;;;;21.29;60.35;99931.19;5293817;26;20084;-95
2023/10/08 11:12:47;;;;;;;0.00;0.00;;;;;;;21.06;60.34;99926.72;5316061;26;20044;-95
2023/10/08 11:15:17;;;;;;;0.00;0.00;;;;;;;21.04;60.34;99934.75;5313744;26;20060;-94
2023/10/08 11:17:43;;;;;;;0.00;0.00;;;;;;;20.95;60.33;99953.94;5313270;26;20079;-95
2023/10/08 11:20:25;;;;;;;0.00;0.00;;;;;;;20.71;60.33;99950.41;5312084;26;20055;-94
2023/10/08 11:22:53;;;;;;;0.00;0.00;;;;;;;20.80;60.33;99944.44;5330341;26;20085;-94
2023/10/08 11:25:24;;;;;;;0.00;0.00;;;;;;;20.73;60.33;99940.56;5312871;26;20622;-94
2023/10/08 11:27:59;;;;;;;0.00;0.00;;;;;;;20.54;60.31;99935.72;5312490;26;20078;-95
2023/10/08 11:30:30;;;;;;;0.00;0.00;;;;;;;20.51;60.31;99944.72;5314121;26;20051;-96
2023/10/08 11:32:56;;;;;;;0.00;0.00;;;;;;;20.41;60.31;99945.47;5313241;26;20070;-95
2023/10/08 11:35:22;;;;;;;0.00;0.00;;;;;;;20.29;60.30;99951.56;5312422;26;20079;-95
2023/10/08 11:37:51;;;;;;;0.00;0.00;;;;;;;20.26;60.30;99952.63;5312061;26;20056;-94
2023/10/08 11:40:28;;;;;;;0.00;0.00;;;;;;;20.00;60.29;99957.03;5312895;26;20089;-93
2023/10/08 11:42:56;;;;;;;0.00;0.00;;;;;;;20.03;60.29;99953.34;5313858;26;20063;-95
2023/10/08 11:45:38;;;;;;;0.00;0.00;;;;;;;19.76;60.27;99948.13;5330199;26;20053;-94
2023/10/08 11:48:11;;;;;;;0.00;0.00;;;;;;;19.79;60.28;99967.25;5316235;26;20070;-94
2023/10/08 11:50:38;;;;;;;0.00;0.00;;;;;;;19.68;60.26;99956.56;5331710;26;20127;-94
2023/10/08 11:56:13;;;;;;;0.00;0.00;;;;;;;19.38;60.25;99963.78;5348404;26;20409;-95
2023/10/08 11:58:44;;;;;;;0.00;0.00;;;;;;;19.50;60.26;99968.28;5311508;26;20071;-96
2023/10/08 12:01:15;;;;;;;0.00;0.00;;;;;;;19.63;60.27;99977.97;5347724;26;20065;-94
2023/10/08 12:03:49;;;;;;;0.00;0.00;;;;;;;19.41;60.26;99971.53;5312208;26;20052;-92
2023/10/08 12:06:17;;;;;;;0.00;0.00;;;;;;;19.12;60.24;99974.25;5312044;26;20080;-95
2023/10/08 12:08:45;;;;;;;0.00;0.00;;;;;;;19.06;60.23;99990.47;5311259;26;20052;-95
2023/10/08 12:11:12;;;;;;;0.00;0.00;;;;;;;19.01;60.24;100009.22;5310184;26;20123;-93
2023/10/08 12:13:38;;;;;;;0.00;0.00;;;;;;;18.92;60.22;100014.22;5312481;26;20048;-92
2023/10/08 12:16:12;;;;;;;0.00;0.00;;;;;;;18.90;60.23;100016.09;5313391;26;20115;-94
2023/10/08 12:18:57;;;;;;;0.00;0.00;;;;;;;18.80;60.22;100020.25;5324762;26;20076;-93
2023/10/08 12:21:24;;;;;;;0.00;0.00;;;;;;;18.60;60.21;100029.34;5321071;26;20107;-93
2023/10/08 12:23:51;;;;;;;0.75;0.43;;;;;;;18.68;60.22;100037.66;5315575;26;20048;-92
2023/10/08 12:26:18;;;;;;;0.00;0.00;;;;;;;18.39;60.21;100039.41;5313517;26;20083;-94
2023/10/08 12:28:45;;;;;;;0.00;0.00;;;;;;;18.42;60.20;100034.78;5312847;26;20043;-95
2023/10/08 12:31:22;;;;;;;0.00;0.00;;;;;;;18.38;60.20;100046.44;5311278;26;20064;-95
2023/10/08 12:33:48;;;;;;;0.00;0.00;;;;;;;18.46;60.20;100046.03;5313448;26;20098;-94
2023/10/08 12:36:16;;;;;;;0.32;0.32;;;;;;;18.51;60.20;100041.31;5312965;26;20024;-94
2023/10/08 12:38:42;;;;;;;0.00;0.00;;;;;;;18.15;60.18;100048.75;5312271;26;20131;-93
2023/10/08 12:41:14;;;;;;;0.00;0.00;;;;;;;18.14;60.19;100049.69;5328631;26;20021;-94
2023/10/08 12:43:45;;;;;;;0.00;0.00;;;;;;;18.15;60.18;100054.88;5312155;26;20063;-95
2023/10/08 12:46:17;;;;;;;0.30;0.30;;;;;;;18.11;60.19;100071.78;5312331;26;20065;-95
2023/10/08 12:48:44;;;;;;;0.00;0.00;;;;;;;18.34;60.20;100060.75;5313740;26;20064;-93
2023/10/08 12:51:11;;;;;;;0.00;0.00;;;;;;;18.46;60.21;100063.63;5311435;26;20075;-92
2023/10/08 12:53:37;;;;;;;0.00;0.00;;;;;;;18.36;60.20;100060.66;5311648;26;20626;-95
2023/10/08 12:56:14;;;;;;;0.00;0.00;;;;;;;18.28;60.19;100065.56;5313852;26;20117;-94
2023/10/08 12:58:41;;;;;;;0.00;0.00;;;;;;;17.86;60.18;100071.50;5330184;26;20130;-93
2023/10/08 13:01:14;;;;;;;0.00;0.00;;;;;;;18.07;60.19;100097.47;5329757;26;20052;-92
2023/10/08 13:03:47;;;;;;;0.00;0.00;;;;;;;17.92;60.18;100090.44;5328902;26;20070;-93
2023/10/08 13:06:28;;;;;;;0.00;0.00;;;;;;;17.99;60.17;100097.06;5309595;26;20064;-93
2023/10/08 13:08:54;;;;;;;0.00;0.00;;;;;;;18.21;60.19;100090.53;5313638;26;20056;-94
2023/10/08 13:11:22;;;;;;;0.00;0.00;;;;;;;17.97;60.17;100098.06;5309728;26;20091;-95
2023/10/08 13:13:49;;;;;;;0.28;0.28;;;;;;;17.79;60.17;100111.34;5310510;26;20126;-93
2023/10/08 13:16:15;;;;;;;0.00;0.00;;;;;;;17.81;60.17;100103.38;5311140;26;20075;-94
2023/10/08 13:18:43;;;;;;;0.00;0.00;;;;;;;17.97;60.17;100111.22;5330985;26;20053;-93
2023/10/08 13:21:10;;;;;;;0.00;0.00;;;;;;;17.85;60.18;100115.44;5310925;26;20086;-94
2023/10/08 13:23:36;;;;;;;0.00;0.00;;;;;;;17.75;60.16;100114.25;5310972;26;20107;-93
2023/10/08 13:26:06;;;;;;;0.00;0.00;;;;;;;17.73;60.17;100116.94;5310574;26;20075;-94
2023/10/08 13:28:33;;;;;;;0.00;0.00;;;;;;;17.69;60.17;100120.69;5328578;26;20060;-93
2023/10/08 13:31:09;;;;;;;0.00;0.00;;;;;;;17.90;60.17;100134.44;5310585;26;20797;-94
2023/10/08 13:33:42;;;;;;;0.00;0.00;;;;;;;17.75;60.17;100143.22;5329108;26;20048;-92
2023/10/08 13:36:13;;;;;;;0.00;0.00;;;;;;;17.68;60.16;100136.56;5310259;26;20074;-94
2023/10/08 13:38:40;;;;;;;0.30;0.30;;;;;;;17.62;60.16;100135.09;5310545;26;20452;-92
2023/10/08 13:41:14;;;;;;;0.00;0.00;;;;;;;17.67;60.16;100140.97;5328348;26;20048;-93
2023/10/08 13:43:47;;;;;;;0.00;0.00;;;;;;;17.47;60.16;100135.91;5330973;26;20637;-92
2023/10/08 13:46:17;;;;;;;0.70;0.70;;;;;;;17.44;60.15;100152.72;5311227;26;20127;-91
2023/10/08 13:48:50;;;;;;;0.00;0.00;;;;;;;17.62;60.16;100150.03;5310023;26;20119;-94
2023/10/08 13:51:26;;;;;;;0.00;0.00;;;;;;;17.46;60.16;100145.59;5311594;26;20083;-94
2023/10/08 13:53:59;;;;;;;0.00;0.00;;;;;;;17.55;60.16;100148.69;5322814;26;20054;-93
2023/10/08 13:56:26;;;;;;;0.00;0.00;;;;;;;17.39;60.15;100149.50;5322759;26;20036;-94
2023/10/08 13:59:13;;;;;;;0.00;0.00;;;;;;;17.41;60.15;100150.25;5315526;26;20075;-91
2023/10/08 14:01:45;;;;;;;0.00;0.00;;;;;;;17.53;60.16;100148.78;5315059;26;20071;-92
2023/10/08 14:04:15;;;;;;;0.00;0.00;;;;;;;17.42;60.15;100153.75;5311366;26;20062;-92
2023/10/08 14:06:47;;;;;;;0.00;0.00;;;;;;;17.41;60.15;100162.56;5310908;26;20726;-92
2023/10/08 14:09:20;;;;;;;0.00;0.00;;;;;;;17.50;60.15;100167.34;5311133;26;20079;-92
2023/10/08 14:11:46;;;;;;;0.00;0.00;;;;;;;17.56;60.16;100174.06;5311752;26;20034;-93
2023/10/08 14:14:12;;;;;;;0.10;0.10;;;;;;;17.56;60.16;100167.03;5309154;26;20406;-91
2023/10/08 14:16:46;;;;;;;0.10;0.10;;;;;;;17.64;60.16;100179.75;5309348;26;20056;-93
2023/10/08 14:19:12;;;;;;;0.00;0.00;;;;;;;17.47;60.16;100185.94;5319939;26;227777;-93
2023/10/08 14:21:53;;;;;;;0.00;0.00;;;;;;;17.46;60.16;100169.28;5311305;26;20060;-91
2023/10/08 14:24:20;;;;;;;0.00;0.00;;;;;;;17.51;60.15;100161.16;5312603;26;20051;-93